Time;durP1;ratioP1;P1;durP2;ratioP2;P2;SDS_P1;SDS_P2;PMS_P1;PMS_P2;Temp;Humidity;BMP_temperature;BMP_pressure;BME280_temperature;BME280_humidity;BME280_pressure;Samples;Min_cycle;Max_cycle;Signal;HPM_P1;HPM_P2
2021/09/19 00:02:23;;;;;;;10.68;6.70;;;17.80;82.10;;;;;;5139217;27;20355;-35
2021/09/19 00:04:48;;;;;;;10.13;6.75;;;17.70;81.90;;;;;;5139139;27;20035;-35
2021/09/19 00:07:14;;;;;;;9.45;7.15;;;17.70;82.00;;;;;;5138934;27;20403;-35
2021/09/19 00:09:39;;;;;;;9.98;6.50;;;17.70;82.00;;;;;;5139260;27;20038;-40
2021/09/19 00:12:06;;;;;;;8.88;6.50;;;17.60;82.00;;;;;;5139139;27;20035;-36
2021/09/19 00:14:34;;;;;;;10.98;5.97;;;17.60;81.90;;;;;;5138913;27;20257;-39
2021/09/19 00:17:00;;;;;;;8.18;5.65;;;17.60;82.00;;;;;;5138929;27;20391;-40
2021/09/19 00:19:26;;;;;;;9.70;5.93;;;17.60;81.90;;;;;;5138998;27;20059;-42
2021/09/19 00:21:51;;;;;;;12.32;8.70;;;17.50;82.10;;;;;;5138900;27;20475;-40
2021/09/19 00:24:17;;;;;;;12.82;7.45;;;17.50;82.10;;;;;;5139155;27;20055;-36
2021/09/19 00:26:43;;;;;;;11.82;6.55;;;17.50;81.70;;;;;;5120644;27;20118;-35
2021/09/19 00:29:08;;;;;;;15.40;6.13;;;17.50;81.50;;;;;;5138552;27;20423;-41
2021/09/19 00:31:34;;;;;;;8.98;6.07;;;17.40;81.40;;;;;;5138680;27;20110;-42
2021/09/19 00:34:00;;;;;;;9.88;5.80;;;17.40;81.50;;;;;;5138769;27;20100;-42
2021/09/19 00:36:25;;;;;;;8.18;5.20;;;17.30;81.50;;;;;;5138498;27;20411;-35
2021/09/19 00:38:51;;;;;;;7.40;5.38;;;17.30;81.60;;;;;;5138483;27;20027;-41
2021/09/19 00:41:17;;;;;;;7.53;5.25;;;17.30;81.90;;;;;;5138420;27;20088;-38
2021/09/19 00:43:43;;;;;;;13.18;5.72;;;17.30;82.00;;;;;;5138200;27;20035;-39
2021/09/19 00:46:08;;;;;;;8.30;5.20;;;17.20;82.10;;;;;;5138381;27;20022;-41
2021/09/19 00:48:34;;;;;;;8.82;5.68;;;17.20;82.50;;;;;;5138566;27;20023;-39
2021/09/19 00:51:01;;;;;;;7.50;5.63;;;17.20;82.30;;;;;;5138129;27;20019;-40
2021/09/19 00:53:27;;;;;;;10.80;5.80;;;17.20;82.20;;;;;;5138149;27;20087;-41
2021/09/19 00:55:57;;;;;;;9.02;5.60;;;17.20;82.30;;;;;;5138091;27;20057;-41
2021/09/19 00:58:23;;;;;;;9.15;5.60;;;17.20;82.30;;;;;;5138567;27;20031;-40
2021/09/19 01:00:49;;;;;;;7.00;5.40;;;17.20;82.30;;;;;;5138039;27;20031;-37
2021/09/19 01:03:18;;;;;;;9.18;5.72;;;17.20;82.50;;;;;;5138304;27;20027;-35
2021/09/19 01:05:44;;;;;;;9.35;5.63;;;17.20;82.60;;;;;;5137873;27;20046;-40
2021/09/19 01:08:14;;;;;;;11.35;6.15;;;17.20;82.50;;;;;;5138396;27;20019;-35
2021/09/19 01:10:40;;;;;;;7.30;5.45;;;17.20;82.50;;;;;;5137496;27;20114;-40
2021/09/19 01:13:08;;;;;;;7.95;6.47;;;17.20;82.40;;;;;;5137361;27;20114;-37
2021/09/19 01:15:34;;;;;;;9.18;6.25;;;17.20;82.50;;;;;;5137230;27;20058;-36
2021/09/19 01:18:00;;;;;;;9.02;6.15;;;17.20;82.50;;;;;;5137826;27;20058;-37
2021/09/19 01:20:26;;;;;;;9.80;5.95;;;17.20;82.60;;;;;;5136873;27;20062;-34
2021/09/19 01:23:05;;;;;;;10.52;6.82;;;17.20;82.70;;;;;;5137697;27;20031;-39
2021/09/19 01:25:32;;;;;;;11.90;6.82;;;17.20;82.80;;;;;;5137523;27;20480;-35
2021/09/19 01:27:58;;;;;;;14.52;8.23;;;17.10;83.10;;;;;;5137916;27;20311;-37
2021/09/19 01:30:24;;;;;;;13.13;9.13;;;17.20;83.30;;;;;;5137694;27;20083;-36
2021/09/19 01:32:50;;;;;;;17.15;10.95;;;17.10;83.50;;;;;;5137523;27;20078;-40
2021/09/19 01:35:15;;;;;;;21.52;12.68;;;17.20;83.50;;;;;;5137183;27;20438;-40
2021/09/19 01:37:42;;;;;;;17.50;12.05;;;17.10;83.30;;;;;;5137630;27;20344;-41
2021/09/19 01:40:09;;;;;;;19.38;13.10;;;17.10;83.40;;;;;;5137027;27;20423;-36
2021/09/19 01:42:35;;;;;;;14.73;11.73;;;17.10;83.50;;;;;;5137395;27;20031;-35
2021/09/19 01:45:00;;;;;;;15.05;11.70;;;17.10;83.70;;;;;;5137386;27;20482;-40
2021/09/19 01:47:26;;;;;;;22.55;14.15;;;17.10;83.80;;;;;;5137280;27;20106;-41
2021/09/19 01:49:52;;;;;;;19.50;14.20;;;17.10;83.70;;;;;;5137068;27;20100;-35
2021/09/19 01:52:20;;;;;;;41.25;15.85;;;17.10;83.80;;;;;;5137221;27;20035;-39
2021/09/19 01:54:46;;;;;;;25.10;15.45;;;17.00;84.00;;;;;;5136271;27;20055;-38
2021/09/19 01:57:20;;;;;;;47.63;16.17;;;17.00;84.30;;;;;;5136214;28;20039;-36
2021/09/19 01:59:51;;;;;;;25.10;14.70;;;17.00;84.60;;;;;;5135938;28;20038;-37
2021/09/19 02:02:17;;;;;;;36.20;16.38;;;17.00;84.80;;;;;;5136137;28;20318;-39
2021/09/19 02:04:43;;;;;;;37.30;16.85;;;17.00;85.00;;;;;;5135912;28;20035;-36
2021/09/19 02:07:08;;;;;;;25.88;16.38;;;17.00;84.90;;;;;;5135976;28;20037;-37
2021/09/19 02:09:34;;;;;;;20.20;15.63;;;17.00;84.80;;;;;;5136130;28;20407;-36
2021/09/19 02:12:00;;;;;;;20.85;16.00;;;17.00;84.90;;;;;;5136271;28;20415;-36
2021/09/19 02:14:25;;;;;;;18.23;14.98;;;17.00;84.90;;;;;;5136157;28;20475;-42
2021/09/19 02:16:51;;;;;;;25.27;16.58;;;16.90;84.90;;;;;;5135794;28;20035;-40
2021/09/19 02:19:18;;;;;;;25.83;16.27;;;16.90;85.10;;;;;;5136024;28;20027;-36
2021/09/19 02:21:44;;;;;;;21.80;14.88;;;16.90;85.00;;;;;;5135859;28;20041;-36
2021/09/19 02:24:10;;;;;;;22.23;13.93;;;16.90;85.10;;;;;;5135794;28;20415;-36
2021/09/19 02:26:36;;;;;;;15.75;10.20;;;16.90;85.00;;;;;;5135884;28;20035;-41
2021/09/19 02:29:01;;;;;;;14.40;9.63;;;16.90;84.30;;;;;;5135578;28;20110;-40
2021/09/19 02:31:27;;;;;;;16.40;9.70;;;16.90;84.20;;;;;;5134524;27;20024;-37
2021/09/19 02:33:52;;;;;;;9.55;6.43;;;16.90;84.20;;;;;;5135785;28;20027;-41
2021/09/19 02:36:18;;;;;;;8.02;5.25;;;17.00;83.30;;;;;;5135511;28;20407;-41
2021/09/19 02:38:44;;;;;;;7.07;5.53;;;16.90;82.10;;;;;;5135678;28;20035;-37
2021/09/19 02:41:09;;;;;;;7.82;5.32;;;16.90;81.70;;;;;;5135217;28;20026;-40
2021/09/19 02:43:35;;;;;;;6.00;4.90;;;16.90;81.00;;;;;;5135675;28;20042;-35
2021/09/19 02:46:01;;;;;;;9.43;5.55;;;16.90;81.10;;;;;;5135318;28;20411;-37
2021/09/19 02:48:26;;;;;;;9.93;4.93;;;16.90;80.60;;;;;;5136196;28;20042;-42
2021/09/19 02:50:52;;;;;;;8.88;4.20;;;16.90;80.20;;;;;;5135143;28;20100;-36
2021/09/19 02:53:18;;;;;;;6.70;3.97;;;16.90;79.80;;;;;;5135850;28;20106;-41
2021/09/19 02:55:44;;;;;;;4.20;3.63;;;16.90;79.00;;;;;;5094463;28;1164941;-41
2021/09/19 02:58:09;;;;;;;5.57;3.83;;;16.90;78.80;;;;;;5136832;28;20088;-42
2021/09/19 03:00:35;;;;;;;4.72;3.40;;;16.90;78.90;;;;;;5135884;28;20349;-40
2021/09/19 03:03:01;;;;;;;5.80;3.70;;;16.90;78.90;;;;;;5136640;28;20102;-41
2021/09/19 03:05:27;;;;;;;4.32;3.70;;;16.80;78.60;;;;;;5136045;28;20118;-39
2021/09/19 03:07:55;;;;;;;5.00;3.40;;;16.80;78.30;;;;;;5136393;28;20023;-36
2021/09/19 03:10:21;;;;;;;5.80;3.75;;;16.80;78.30;;;;;;5136421;28;20092;-36
2021/09/19 03:12:46;;;;;;;5.22;3.70;;;16.80;78.20;;;;;;5136182;28;20027;-37
2021/09/19 03:15:12;;;;;;;4.40;3.65;;;16.80;78.10;;;;;;5136191;28;20043;-42
2021/09/19 03:17:39;;;;;;;7.57;4.13;;;16.80;78.30;;;;;;5136329;28;20023;-35
2021/09/19 03:20:07;;;;;;;5.57;4.38;;;16.70;78.40;;;;;;5135836;28;20427;-42
2021/09/19 03:22:33;;;;;;;5.53;3.78;;;16.70;78.50;;;;;;5136002;28;20023;-41
2021/09/19 03:24:58;;;;;;;7.18;4.53;;;16.70;78.70;;;;;;5135887;28;20035;-36
2021/09/19 03:27:24;;;;;;;4.45;3.80;;;16.70;78.70;;;;;;5136072;28;20031;-34
2021/09/19 03:29:50;;;;;;;5.50;3.83;;;16.70;78.40;;;;;;5135882;28;20136;-41
2021/09/19 03:32:15;;;;;;;5.22;3.63;;;16.70;78.30;;;;;;5136131;28;20054;-37
2021/09/19 03:34:41;;;;;;;7.47;3.80;;;16.70;78.30;;;;;;5135883;28;20326;-39
2021/09/19 03:37:07;;;;;;;7.72;3.70;;;16.70;78.40;;;;;;5136026;28;20242;-40
2021/09/19 03:39:32;;;;;;;8.45;4.30;;;16.70;78.40;;;;;;5135641;28;20084;-36
2021/09/19 03:41:58;;;;;;;4.50;3.35;;;16.70;78.40;;;;;;5135956;27;20076;-40
2021/09/19 03:44:24;;;;;;;5.95;3.42;;;16.70;78.10;;;;;;5139614;27;20073;-39
2021/09/19 03:46:49;;;;;;;5.05;3.60;;;16.70;77.90;;;;;;5139588;27;20236;-37
2021/09/19 03:49:15;;;;;;;6.13;3.85;;;16.70;78.10;;;;;;5139542;27;20080;-40
2021/09/19 03:51:41;;;;;;;5.85;3.53;;;16.70;78.40;;;;;;5139333;27;20461;-37
2021/09/19 03:54:06;;;;;;;6.88;3.88;;;16.70;78.30;;;;;;5139338;27;20350;-35
2021/09/19 03:56:32;;;;;;;7.38;3.80;;;16.70;78.20;;;;;;5139300;27;20030;-36
2021/09/19 03:58:58;;;;;;;4.43;3.70;;;16.70;77.80;;;;;;5139048;27;20019;-34
2021/09/19 04:01:23;;;;;;;5.90;3.60;;;16.70;78.00;;;;;;5138869;27;20038;-40
2021/09/19 04:03:49;;;;;;;4.43;3.13;;;16.70;78.00;;;;;;5138984;27;20058;-37
2021/09/19 04:06:14;;;;;;;7.72;3.65;;;16.60;78.00;;;;;;5138970;27;20019;-38
2021/09/19 04:08:40;;;;;;;6.88;3.38;;;16.60;78.30;;;;;;5139244;27;20419;-36
2021/09/19 04:11:06;;;;;;;6.25;4.00;;;16.60;78.50;;;;;;5138986;27;20312;-40
2021/09/19 04:13:31;;;;;;;4.97;3.75;;;16.60;78.70;;;;;;5139051;27;20027;-41
2021/09/19 04:15:57;;;;;;;10.05;4.20;;;16.70;78.80;;;;;;5138759;27;20418;-41
2021/09/19 04:18:23;;;;;;;4.20;3.70;;;16.70;78.30;;;;;;5139351;27;20039;-34
2021/09/19 04:20:48;;;;;;;5.60;3.75;;;16.70;78.00;;;;;;5138622;27;20027;-35
2021/09/19 04:23:14;;;;;;;5.75;3.70;;;16.70;78.10;;;;;;5138614;27;20433;-40
2021/09/19 04:25:40;;;;;;;5.50;3.75;;;16.70;77.90;;;;;;5138397;27;20019;-43
2021/09/19 04:28:05;;;;;;;4.03;3.25;;;16.70;78.00;;;;;;5139241;27;20410;-35
2021/09/19 04:30:31;;;;;;;6.22;3.30;;;16.80;78.10;;;;;;5138194;27;20027;-37
2021/09/19 04:32:57;;;;;;;9.73;3.70;;;16.80;78.10;;;;;;5138845;27;20487;-38
2021/09/19 04:35:22;;;;;;;6.53;3.63;;;16.80;78.20;;;;;;5138617;27;20437;-40
2021/09/19 04:37:48;;;;;;;5.07;3.70;;;16.80;78.10;;;;;;5119915;27;20046;-37
2021/09/19 04:40:14;;;;;;;6.07;4.20;;;16.80;77.80;;;;;;5138075;27;20031;-35
2021/09/19 04:42:40;;;;;;;8.27;4.13;;;16.80;77.20;;;;;;5138411;27;20453;-40
2021/09/19 04:45:07;;;;;;;6.15;4.63;;;16.80;77.40;;;;;;5138136;27;20411;-40
2021/09/19 04:47:33;;;;;;;7.60;4.70;;;16.80;77.50;;;;;;5138301;27;20050;-38
2021/09/19 04:49:59;;;;;;;12.75;4.97;;;16.80;77.50;;;;;;5138237;27;20027;-41
2021/09/19 04:52:24;;;;;;;5.57;4.18;;;16.80;77.70;;;;;;5138292;27;20034;-41
2021/09/19 04:54:50;;;;;;;8.35;4.70;;;16.80;77.90;;;;;;5136698;27;20055;-36
2021/09/19 04:57:15;;;;;;;4.63;3.90;;;16.80;78.20;;;;;;5138050;27;20449;-35
2021/09/19 04:59:41;;;;;;;7.82;4.57;;;16.90;78.50;;;;;;5137689;27;20087;-41
2021/09/19 05:02:07;;;;;;;7.45;5.20;;;16.90;78.80;;;;;;5138204;27;20035;-36
2021/09/19 05:04:33;;;;;;;9.57;5.10;;;16.90;79.00;;;;;;5137973;27;20031;-41
2021/09/19 05:06:59;;;;;;;8.32;4.60;;;16.90;78.70;;;;;;5137982;27;20030;-41
2021/09/19 05:09:25;;;;;;;6.68;4.80;;;16.90;78.80;;;;;;5137916;27;20410;-35
2021/09/19 05:11:50;;;;;;;5.50;4.35;;;16.90;78.40;;;;;;5137665;27;20039;-40
2021/09/19 05:14:16;;;;;;;6.03;4.70;;;17.00;78.20;;;;;;5137529;27;20035;-40
2021/09/19 05:16:42;;;;;;;5.32;4.00;;;17.00;78.10;;;;;;5137750;27;20239;-41
2021/09/19 05:19:07;;;;;;;8.40;4.43;;;17.00;77.90;;;;;;5137623;27;20035;-38
2021/09/19 05:21:33;;;;;;;7.78;4.47;;;17.10;77.50;;;;;;5137577;27;20398;-37
2021/09/19 05:23:59;;;;;;;6.95;4.03;;;17.10;77.00;;;;;;5137448;27;20042;-41
2021/09/19 05:26:25;;;;;;;8.25;5.65;;;17.20;77.20;;;;;;5137383;27;20019;-40
2021/09/19 05:28:51;;;;;;;5.63;4.03;;;17.20;76.60;;;;;;5137503;27;20165;-41
2021/09/19 05:31:17;;;;;;;4.82;4.15;;;17.30;76.10;;;;;;5137397;27;20068;-36
2021/09/19 05:33:44;;;;;;;8.07;3.92;;;17.30;75.90;;;;;;5137384;27;20191;-36
2021/09/19 05:36:09;;;;;;;4.18;3.38;;;17.40;75.50;;;;;;5137346;27;20115;-35
2021/09/19 05:38:35;;;;;;;4.82;3.78;;;17.40;75.30;;;;;;5137287;27;20047;-40
2021/09/19 05:41:01;;;;;;;6.88;4.10;;;17.50;74.70;;;;;;5136650;27;20462;-35
2021/09/19 05:43:26;;;;;;;14.88;10.55;;;17.60;74.20;;;;;;5137310;27;20023;-39
2021/09/19 05:45:52;;;;;;;7.13;5.47;;;17.60;74.70;;;;;;5136739;27;20070;-35
2021/09/19 05:48:18;;;;;;;7.72;4.50;;;17.70;74.10;;;;;;5137450;27;20061;-36
2021/09/19 05:50:44;;;;;;;7.40;4.60;;;17.80;74.30;;;;;;5136621;27;20023;-40
2021/09/19 05:53:09;;;;;;;6.47;5.07;;;17.80;73.90;;;;;;5137436;27;20280;-41
2021/09/19 05:55:35;;;;;;;11.18;7.90;;;17.90;73.60;;;;;;5136450;27;20055;-41
2021/09/19 05:58:01;;;;;;;10.88;4.95;;;18.00;73.70;;;;;;5137276;27;20471;-41
2021/09/19 06:00:26;;;;;;;6.32;4.55;;;18.00;73.10;;;;;;5136829;27;20027;-35
2021/09/19 06:02:52;;;;;;;6.80;4.65;;;18.00;72.80;;;;;;5118120;27;20046;-41
2021/09/19 06:05:17;;;;;;;5.75;4.55;;;18.10;72.90;;;;;;5136236;27;20030;-41
2021/09/19 06:07:43;;;;;;;9.18;5.15;;;18.10;72.50;;;;;;5137137;27;20038;-39
2021/09/19 06:10:09;;;;;;;7.05;4.50;;;18.10;72.70;;;;;;5136525;27;20114;-40
2021/09/19 06:12:35;;;;;;;5.57;3.88;;;18.20;72.70;;;;;;5136690;27;20027;-33
2021/09/19 06:15:02;;;;;;;5.43;4.25;;;18.20;72.50;;;;;;5136342;27;20034;-33
2021/09/19 06:17:28;;;;;;;7.05;3.78;;;18.30;72.30;;;;;;5136708;27;20031;-33
2021/09/19 06:19:55;;;;;;;8.60;4.05;;;18.30;72.00;;;;;;5136376;27;20032;-32
2021/09/19 06:22:21;;;;;;;8.65;5.75;;;18.30;71.50;;;;;;5136125;27;20434;-33
2021/09/19 06:24:46;;;;;;;6.53;4.45;;;18.30;71.50;;;;;;5136516;27;20019;-32
2021/09/19 06:27:12;;;;;;;6.38;4.53;;;18.40;71.20;;;;;;5136216;27;20051;-33
2021/09/19 06:29:39;;;;;;;7.43;4.20;;;18.30;70.70;;;;;;5136113;27;20106;-32
2021/09/19 06:32:07;;;;;;;7.88;4.40;;;18.30;70.70;;;;;;5136031;28;20039;-32
2021/09/19 06:34:37;;;;;;;7.70;4.97;;;18.30;70.50;;;;;;5136136;28;20027;-33
2021/09/19 06:37:04;;;;;;;7.25;4.50;;;18.30;70.70;;;;;;5136378;28;20049;-33
2021/09/19 06:39:30;;;;;;;6.70;5.20;;;18.30;70.50;;;;;;5136239;28;20066;-33
2021/09/19 06:41:56;;;;;;;4.97;4.47;;;18.30;70.90;;;;;;5136128;28;20071;-32
2021/09/19 06:44:22;;;;;;;6.40;4.75;;;18.30;70.80;;;;;;5136462;28;20344;-33
2021/09/19 06:46:48;;;;;;;7.15;4.68;;;18.30;71.10;;;;;;5136144;28;20106;-34
2021/09/19 06:49:14;;;;;;;6.47;4.65;;;18.40;71.30;;;;;;5136279;28;20115;-32
2021/09/19 06:51:39;;;;;;;7.93;5.43;;;18.40;71.00;;;;;;5135920;28;20055;-32
2021/09/19 06:54:05;;;;;;;14.23;5.18;;;18.40;71.10;;;;;;5135795;28;20051;-32
2021/09/19 06:56:31;;;;;;;8.57;5.05;;;18.40;70.90;;;;;;5136006;28;20200;-34
2021/09/19 06:58:57;;;;;;;7.70;5.45;;;18.40;71.40;;;;;;5136115;28;20027;-32
2021/09/19 07:01:23;;;;;;;8.88;5.97;;;18.50;71.40;;;;;;5135744;28;20088;-34
2021/09/19 07:03:49;;;;;;;10.23;6.20;;;18.50;71.70;;;;;;5136232;28;20322;-34
2021/09/19 07:06:16;;;;;;;8.43;5.60;;;18.60;71.70;;;;;;5135854;28;20027;-34
2021/09/19 07:08:43;;;;;;;9.13;7.38;;;18.70;71.50;;;;;;5136015;28;20031;-34
2021/09/19 07:11:09;;;;;;;7.78;6.65;;;18.70;71.30;;;;;;5135747;28;20027;-34
2021/09/19 07:13:34;;;;;;;9.07;6.22;;;18.80;71.10;;;;;;5135695;28;20036;-34
2021/09/19 07:16:00;;;;;;;10.55;6.85;;;18.80;71.30;;;;;;5135482;28;20327;-32
2021/09/19 07:18:26;;;;;;;12.65;9.90;;;18.90;70.90;;;;;;5138310;27;20023;-34
2021/09/19 07:20:55;;;;;;;8.57;7.43;;;18.90;70.90;;;;;;5139556;27;20030;-33
2021/09/19 07:23:22;;;;;;;9.65;6.75;;;19.00;70.70;;;;;;5122077;27;20035;-35
2021/09/19 07:25:48;;;;;;;8.70;7.22;;;19.00;70.10;;;;;;5139620;27;20062;-33
2021/09/19 07:28:14;;;;;;;11.13;6.57;;;19.00;69.70;;;;;;5139633;27;20103;-32
2021/09/19 07:30:40;;;;;;;15.93;6.50;;;19.10;69.50;;;;;;5139170;27;20073;-32
2021/09/19 07:33:07;;;;;;;10.52;6.75;;;19.20;69.60;;;;;;5139708;27;20110;-34
2021/09/19 07:35:33;;;;;;;9.90;7.20;;;19.20;68.80;;;;;;5139377;27;20031;-34
2021/09/19 07:37:58;;;;;;;9.38;6.50;;;19.30;69.20;;;;;;5139822;27;20038;-31
2021/09/19 07:40:24;;;;;;;7.93;6.25;;;19.40;68.30;;;;;;5139532;27;20039;-34
2021/09/19 07:42:51;;;;;;;7.40;5.57;;;19.40;68.30;;;;;;5139595;27;20417;-33
2021/09/19 07:45:17;;;;;;;8.93;6.25;;;19.50;67.90;;;;;;5139418;27;20430;-34
2021/09/19 07:47:43;;;;;;;10.85;6.50;;;19.50;67.90;;;;;;5139427;27;20023;-33
2021/09/19 07:50:10;;;;;;;9.73;6.30;;;19.50;67.40;;;;;;5139453;27;20035;-33
2021/09/19 07:52:36;;;;;;;8.73;5.93;;;19.60;67.30;;;;;;5139484;27;20296;-33
2021/09/19 07:55:02;;;;;;;9.20;5.53;;;19.60;67.60;;;;;;5138895;27;20270;-33
2021/09/19 07:57:28;;;;;;;6.00;5.20;;;19.60;67.40;;;;;;5139427;27;20137;-33
2021/09/19 07:59:54;;;;;;;8.25;5.55;;;19.60;67.20;;;;;;5138905;27;20106;-35
2021/09/19 08:02:21;;;;;;;7.45;5.13;;;19.70;67.20;;;;;;5139191;27;20170;-33
2021/09/19 08:04:47;;;;;;;9.82;5.68;;;19.70;67.60;;;;;;5138882;27;20038;-34
2021/09/19 08:07:13;;;;;;;6.63;5.22;;;19.70;67.80;;;;;;5138941;27;20030;-34
2021/09/19 08:09:39;;;;;;;6.78;5.40;;;19.70;68.50;;;;;;5138835;27;20019;-33
2021/09/19 08:12:05;;;;;;;6.00;4.45;;;19.70;67.20;;;;;;5138727;27;20034;-33
2021/09/19 08:14:31;;;;;;;8.43;5.10;;;19.70;66.90;;;;;;5138839;27;20039;-34
2021/09/19 08:16:57;;;;;;;7.85;4.75;;;19.70;66.80;;;;;;5138715;27;20421;-33
2021/09/19 08:19:24;;;;;;;7.47;4.45;;;19.70;66.80;;;;;;5138753;27;20070;-34
2021/09/19 08:21:50;;;;;;;7.10;4.65;;;19.70;66.70;;;;;;5138674;27;20088;-32
2021/09/19 08:24:16;;;;;;;5.63;4.82;;;19.70;66.60;;;;;;5138569;27;20035;-34
2021/09/19 08:26:42;;;;;;;11.73;5.20;;;19.80;66.70;;;;;;5138562;27;20033;-34
2021/09/19 08:29:09;;;;;;;6.03;4.25;;;19.80;66.80;;;;;;5138360;27;20031;-33
2021/09/19 08:31:36;;;;;;;5.35;4.00;;;19.80;66.30;;;;;;5138571;27;20265;-34
2021/09/19 08:34:02;;;;;;;9.85;4.85;;;19.90;66.10;;;;;;5138297;27;20080;-33
2021/09/19 08:36:28;;;;;;;6.82;4.50;;;19.90;66.10;;;;;;5138340;27;20019;-34
2021/09/19 08:38:54;;;;;;;6.30;4.75;;;19.90;65.70;;;;;;5138449;27;20300;-33
2021/09/19 08:41:20;;;;;;;11.98;4.60;;;19.90;66.30;;;;;;5138197;27;20088;-33
2021/09/19 08:43:48;;;;;;;3.90;3.38;;;20.00;66.40;;;;;;5138299;27;20122;-32
2021/09/19 08:46:18;;;;;;;4.57;3.67;;;20.00;65.60;;;;;;5138224;27;20020;-34
2021/09/19 08:48:43;;;;;;;4.80;3.92;;;20.10;65.40;;;;;;5138457;27;20058;-34
2021/09/19 08:51:09;;;;;;;5.97;3.85;;;20.10;65.30;;;;;;5137730;27;20066;-34
2021/09/19 08:53:35;;;;;;;5.72;3.58;;;20.20;64.60;;;;;;5137668;27;20027;-34
2021/09/19 08:56:02;;;;;;;3.72;3.08;;;20.20;64.10;;;;;;5137564;27;20418;-34
2021/09/19 08:58:28;;;;;;;4.93;3.38;;;20.30;64.20;;;;;;5138303;27;20101;-34
2021/09/19 09:00:57;;;;;;;3.97;3.15;;;20.30;64.00;;;;;;5137663;27;20043;-34
2021/09/19 09:03:23;;;;;;;6.15;3.65;;;20.40;63.80;;;;;;5120404;27;20039;-34
2021/09/19 09:05:54;;;;;;;4.68;3.40;;;20.40;64.10;;;;;;5137779;27;20027;-33
2021/09/19 09:08:20;;;;;;;6.43;4.05;;;20.50;63.80;;;;;;5138311;27;20047;-33
2021/09/19 09:10:49;;;;;;;6.75;3.60;;;20.60;63.80;;;;;;5137373;27;20059;-35
2021/09/19 09:13:22;;;;;;;5.32;3.70;;;20.70;63.50;;;;;;5138084;27;20034;-35
2021/09/19 09:15:50;;;;;;;7.28;3.97;;;20.80;63.30;;;;;;5137526;27;20037;-33
2021/09/19 09:18:27;;;;;;;8.57;4.13;;;20.80;62.90;;;;;;5138023;27;20034;-35
2021/09/19 09:21:07;;;;;;;6.13;4.00;;;20.90;63.10;;;;;;5137430;27;20031;-34
2021/09/19 09:23:34;;;;;;;4.93;3.80;;;20.90;62.80;;;;;;5137742;27;20035;-34
2021/09/19 09:26:24;;;;;;;5.95;3.55;;;21.00;62.60;;;;;;5137086;27;20019;-34
2021/09/19 09:28:50;;;;;;;4.40;3.70;;;21.00;63.00;;;;;;5137126;27;20284;-32
2021/09/19 09:31:20;;;;;;;5.40;3.78;;;21.00;62.90;;;;;;5136969;27;20019;-33
2021/09/19 09:34:06;;;;;;;3.72;3.30;;;21.10;62.60;;;;;;5137047;27;20032;-34
2021/09/19 09:36:48;;;;;;;3.72;3.28;;;21.20;62.60;;;;;;5136943;27;20084;-32
2021/09/19 09:39:33;;;;;;;6.00;3.75;;;21.20;61.90;;;;;;5137142;27;20055;-32
2021/09/19 09:42:20;;;;;;;3.58;3.28;;;21.30;61.70;;;;;;5136557;27;20031;-32
2021/09/19 09:44:48;;;;;;;6.38;3.60;;;21.40;61.90;;;;;;5137004;27;20030;-33
2021/09/19 09:47:22;;;;;;;4.63;3.45;;;21.40;61.70;;;;;;5137099;27;20031;-33
2021/09/19 09:49:58;;;;;;;4.50;3.63;;;21.50;61.50;;;;;;5136874;27;20424;-33
2021/09/19 09:52:24;;;;;;;3.60;3.15;;;21.60;61.70;;;;;;5137048;27;20313;-32
2021/09/19 09:55:00;;;;;;;4.32;3.85;;;21.50;61.10;;;;;;5136613;27;20364;-32
2021/09/19 09:57:35;;;;;;;5.78;3.55;;;21.60;60.70;;;;;;5137019;27;20038;-32
2021/09/19 10:00:14;;;;;;;5.57;3.20;;;21.60;61.00;;;;;;5136498;27;20110;-32
2021/09/19 10:02:43;;;;;;;5.55;3.88;;;21.60;60.90;;;;;;5136808;27;20054;-32
2021/09/19 10:05:11;;;;;;;5.85;3.72;;;21.60;61.10;;;;;;5136363;27;20044;-34
2021/09/19 10:07:37;;;;;;;3.70;3.20;;;21.70;61.60;;;;;;5136578;27;20027;-33
2021/09/19 10:10:05;;;;;;;4.47;3.42;;;21.80;61.20;;;;;;5136909;27;20296;-33
2021/09/19 10:12:31;;;;;;;4.72;3.13;;;21.80;60.80;;;;;;5136743;27;20027;-33
2021/09/19 10:14:57;;;;;;;4.97;3.42;;;21.90;60.20;;;;;;5136480;27;20287;-35
2021/09/19 10:17:24;;;;;;;3.38;3.00;;;21.90;60.50;;;;;;5135934;27;20418;-35
2021/09/19 10:19:51;;;;;;;5.13;3.58;;;22.00;60.10;;;;;;5136127;27;20035;-34
2021/09/19 10:22:23;;;;;;;4.90;3.10;;;22.00;59.60;;;;;;5136405;27;20020;-34
2021/09/19 10:24:50;;;;;;;5.47;3.40;;;22.00;59.30;;;;;;5135986;27;20019;-34
2021/09/19 10:27:22;;;;;;;5.38;3.38;;;22.10;59.40;;;;;;5135880;27;20024;-35
2021/09/19 10:30:18;;;;;;;5.43;2.88;;;22.10;59.50;;;;;;5136266;27;20027;-33
2021/09/19 10:32:46;;;;;;;4.53;3.08;;;22.20;59.70;;;;;;5133696;28;20092;-34
2021/09/19 10:35:18;;;;;;;4.68;2.53;;;22.30;58.50;;;;;;5135819;28;20114;-34
2021/09/19 10:38:00;;;;;;;3.58;3.03;;;22.30;58.20;;;;;;5136292;28;20031;-34
2021/09/19 10:40:37;;;;;;;3.25;2.67;;;22.30;58.00;;;;;;5135765;28;20039;-34
2021/09/19 10:43:07;;;;;;;2.50;2.30;;;22.40;57.40;;;;;;5136414;28;20067;-33
2021/09/19 10:45:45;;;;;;;3.30;2.50;;;22.40;56.30;;;;;;5135757;28;20047;-33
2021/09/19 10:48:25;;;;;;;3.65;2.58;;;22.30;55.70;;;;;;5136346;28;20031;-33
2021/09/19 10:51:04;;;;;;;3.30;2.70;;;22.30;55.50;;;;;;5136130;28;20047;-33
2021/09/19 10:53:30;;;;;;;6.28;3.85;;;22.30;55.70;;;;;;5138691;27;20070;-34
2021/09/19 10:55:59;;;;;;;4.18;3.05;;;22.30;55.80;;;;;;5140152;27;20067;-34
2021/09/19 10:58:30;;;;;;;2.40;2.20;;;22.30;56.00;;;;;;5140575;27;20325;-32
2021/09/19 11:01:27;;;;;;;5.68;2.97;;;22.30;55.30;;;;;;5139884;27;20102;-33
2021/09/19 11:03:58;;;;;;;3.33;2.80;;;22.30;55.40;;;;;;5139777;27;20350;-33
2021/09/19 11:06:36;;;;;;;3.35;2.60;;;22.30;55.30;;;;;;5139923;27;20398;-34
2021/09/19 11:09:21;;;;;;;3.38;2.65;;;22.40;55.00;;;;;;5140200;27;20074;-34
2021/09/19 11:12:07;;;;;;;2.85;2.40;;;22.40;54.80;;;;;;5140104;27;20095;-32
2021/09/19 11:14:56;;;;;;;4.38;2.60;;;22.50;54.70;;;;;;5139643;27;20028;-32
2021/09/19 11:17:27;;;;;;;7.50;3.80;;;22.60;54.70;;;;;;5139980;27;20027;-33
2021/09/19 11:20:11;;;;;;;4.05;2.50;;;22.70;54.80;;;;;;5139526;27;20031;-33
2021/09/19 11:22:41;;;;;;;4.20;2.42;;;22.80;53.80;;;;;;5139853;27;20027;-33
2021/09/19 11:25:08;;;;;;;23.90;8.85;;;22.80;53.40;;;;;;5139617;27;20274;-35
2021/09/19 11:27:34;;;;;;;4.72;2.88;;;22.90;53.80;;;;;;5139762;27;20407;-34
2021/09/19 11:30:00;;;;;;;3.38;2.55;;;23.00;53.40;;;;;;5139565;27;20028;-33
2021/09/19 11:32:28;;;;;;;2.25;2.05;;;23.10;53.40;;;;;;5139812;27;20030;-34
2021/09/19 11:34:54;;;;;;;3.85;2.60;;;23.20;53.00;;;;;;5139298;27;20382;-33
2021/09/19 11:37:20;;;;;;;3.35;2.40;;;23.30;52.80;;;;;;5139553;27;20114;-34
2021/09/19 11:39:46;;;;;;;4.25;2.30;;;23.30;51.90;;;;;;5139045;27;20110;-33
2021/09/19 11:42:13;;;;;;;2.92;2.60;;;23.30;51.60;;;;;;5139463;27;20058;-34
2021/09/19 11:44:50;;;;;;;3.25;2.42;;;23.30;51.60;;;;;;5139249;27;20407;-33
2021/09/19 11:47:21;;;;;;;3.38;2.55;;;23.20;51.30;;;;;;5139272;27;20023;-34
2021/09/19 11:49:50;;;;;;;4.45;2.53;;;23.20;51.70;;;;;;5139495;27;20016;-34
2021/09/19 11:52:17;;;;;;;3.97;2.38;;;23.10;51.90;;;;;;5139032;27;20110;-35
2021/09/19 11:54:43;;;;;;;4.72;2.40;;;23.10;52.20;;;;;;5138734;27;20059;-33
2021/09/19 11:57:11;;;;;;;3.97;2.53;;;23.10;52.10;;;;;;5139025;27;20031;-35
2021/09/19 11:59:43;;;;;;;2.45;2.25;;;23.10;52.20;;;;;;5120603;27;20442;-33
2021/09/19 12:02:14;;;;;;;2.85;2.30;;;23.00;51.60;;;;;;5138747;27;20031;-32
2021/09/19 12:04:46;;;;;;;;;;;23.00;51.90;;;;;;5120692;27;20039;-33
2021/09/19 12:07:13;;;;;;;3.58;2.08;;;22.90;52.50;;;;;;5138851;27;19907;-34
2021/09/19 12:09:57;;;;;;;3.55;1.90;;;22.90;51.80;;;;;;5138819;27;20034;-33
2021/09/19 12:12:23;;;;;;;2.72;2.15;;;22.90;51.90;;;;;;5138771;27;20035;-34
2021/09/19 12:14:52;;;;;;;3.05;2.53;;;22.80;51.40;;;;;;5138404;27;20042;-33
2021/09/19 12:17:29;;;;;;;2.65;1.77;;;22.90;51.80;;;;;;5138743;27;20019;-34
2021/09/19 12:20:02;;;;;;;2.92;1.83;;;23.00;51.80;;;;;;5138334;27;20231;-34
2021/09/19 12:22:30;;;;;;;1.95;1.77;;;23.20;50.60;;;;;;5138659;27;20031;-33
2021/09/19 12:25:04;;;;;;;2.88;1.63;;;23.40;50.90;;;;;;5138648;27;20038;-33
2021/09/19 12:27:33;;;;;;;4.88;2.28;;;23.60;50.80;;;;;;5138543;27;20153;-33
2021/09/19 12:30:01;;;;;;;2.35;1.92;;;23.80;50.00;;;;;;5120434;27;20088;-33
2021/09/19 12:32:50;;;;;;;2.15;1.90;;;24.10;49.60;;;;;;5138622;27;20376;-33
2021/09/19 12:35:23;;;;;;;2.20;1.98;;;24.30;49.60;;;;;;5138049;27;20042;-34
2021/09/19 12:37:49;;;;;;;2.83;2.05;;;24.60;49.40;;;;;;5138091;27;20027;-34
2021/09/19 12:40:20;;;;;;;3.22;2.20;;;24.80;48.50;;;;;;5138279;27;20034;-34
2021/09/19 12:42:47;;;;;;;2.22;2.05;;;25.10;47.60;;;;;;5138371;27;20027;-33
2021/09/19 12:45:14;;;;;;;2.83;2.55;;;25.30;47.30;;;;;;5138013;27;20038;-34
2021/09/19 12:47:41;;;;;;;3.30;3.00;;;25.40;46.70;;;;;;5138555;27;20321;-34
2021/09/19 12:50:15;;;;;;;6.05;3.03;;;25.30;46.90;;;;;;5138255;27;20032;-33